Casper, WY (82601)

2:00 AM MDT on July 31, 2016 (GMT -0600)
Grant Avenue | | Change Station

Elev 5164 ft 42.84 °N, 106.32 °W | Updated 2 seconds ago

Clear
Clear
75.2 °F
Feels Like 77 °F
N
1.2
Wind Variable Wind from WNW
Gusts 1.9 mph

Today
High -- | Low -- °F
--% Chance of Precip.
Yesterday
High -- | Low -- °F
Precip. -- in
Pressure 29.69 in
Visibility 10.0 miles
Clouds Clear
Heat Index 77 °F
Dew Point 47 °F
Humidity 36%
Rainfall 0.00 in
Snow Depth Not available.
5:56 AM 8:26 PM
Waning Crescent, 8% visible
METAR KCPR 310753Z AUTO 23005KT 10SM CLR 19/05 A2993 RMK AO2 SLP053 T01940050
Pressure 29.69 in
Visibility 10.0 miles
Clouds Clear
Heat Index 77 °F
Dew Point 47 °F
Humidity 36%
Rainfall 0.00 in
Snow Depth Not available.
5:56 AM 8:26 PM
Waning Crescent, 8% visible
METAR KCPR 310753Z AUTO 23005KT 10SM CLR 19/05 A2993 RMK AO2 SLP053 T01940050

10-Day Weather Forecast

Almanac

Astronomy

Jul. 31, 2016 Rise Set
Actual Time
Civil Twilight
Nautical Twilight
Astronomical Twilight
Moon
Length of Visible Light
Length of Day
Tomorrow will be .
, % of the Moon is Illuminated

Today's Extremes

State Highs State Lows

Community

WunderPhotos

Upload Photos

1,928,768 photos uploaded!

WunderBlog® & News

Nearby

Air Quality

  Air Quality AQ Index Pollutant
Not available.

Snow Depth

Station Depth Elevation

Earthquake Activity

City Distance Mag. Time & Date
Minimum magnitude displayed is 2.5.

Coastal Water Temperatures

Place Temperature

Stations

Nearby Weather Stations

Station Location Temp. Windchill Dew Point Humidity Wind Precip. Elev Updated Type
                   

Watches & Warnings

There are currently no watches in effect.